Time;durP1;ratioP1;P1;durP2;ratioP2;P2;SDS_P1;SDS_P2;PMS_P1;PMS_P2;Temp;Humidity;BMP_temperature;BMP_pressure;BME280_temperature;BME280_humidity;BME280_pressure;Samples;Min_cycle;Max_cycle;Signal;HPM_P1;HPM_P2
2022/03/17 00:04:09;;;;;;;39.70;35.70;;;9.60;99.90;;;;;;10465721;28;20677;-83
2022/03/17 00:09:13;;;;;;;34.37;30.90;;;9.60;99.90;;;;;;10445555;28;20201;-83
2022/03/17 00:14:16;;;;;;;35.33;31.73;;;9.60;99.90;;;;;;10429259;28;20233;-83
2022/03/17 00:19:18;;;;;;;49.73;33.13;;;9.50;99.90;;;;;;10455366;28;20209;-83
2022/03/17 00:24:21;;;;;;;36.03;32.43;;;9.50;99.90;;;;;;10475612;28;20259;-83
2022/03/17 00:29:23;;;;;;;32.63;29.33;;;9.50;99.90;;;;;;10435381;28;20296;-84
2022/03/17 00:34:26;;;;;;;35.80;32.30;;;9.50;99.90;;;;;;10473721;28;20228;-83
2022/03/17 00:39:29;;;;;;;33.83;30.47;;;9.50;99.90;;;;;;10444391;28;20197;-83
2022/03/17 00:44:31;;;;;;;32.63;29.40;;;9.50;99.90;;;;;;10445159;28;20220;-83
2022/03/17 00:49:33;;;;;;;33.63;30.33;;;9.50;99.90;;;;;;10447837;28;20660;-84
2022/03/17 00:54:37;;;;;;;35.13;31.43;;;9.40;99.90;;;;;;10436148;28;20233;-83
2022/03/17 00:59:41;;;;;;;34.67;31.27;;;9.50;99.90;;;;;;10451997;28;20205;-83
2022/03/17 01:04:43;;;;;;;37.13;33.37;;;9.40;99.90;;;;;;10435757;28;20226;-83
2022/03/17 01:09:46;;;;;;;34.07;30.67;;;9.40;99.90;;;;;;10450567;28;20621;-83
2022/03/17 01:14:49;;;;;;;36.60;32.90;;;9.40;99.90;;;;;;10446323;28;20704;-83
2022/03/17 01:19:51;;;;;;;34.50;30.80;;;9.40;99.90;;;;;;10427569;28;20209;-82
2022/03/17 01:24:55;;;;;;;33.10;29.90;;;9.30;99.90;;;;;;10456160;28;20213;-83
2022/03/17 01:29:57;;;;;;;35.23;31.67;;;9.40;99.90;;;;;;10462801;28;20197;-83
2022/03/17 01:35:00;;;;;;;35.30;31.83;;;9.30;99.90;;;;;;10444520;28;20236;-82
2022/03/17 01:40:04;;;;;;;35.10;31.70;;;9.30;99.90;;;;;;10431426;28;20257;-82
2022/03/17 01:45:07;;;;;;;34.47;31.03;;;9.30;99.90;;;;;;10430808;28;20300;-83
2022/03/17 01:50:11;;;;;;;37.60;33.73;;;9.20;99.90;;;;;;10446514;28;20219;-83
2022/03/17 01:55:17;;;;;;;35.00;31.33;;;9.20;99.90;;;;;;10440516;28;20694;-83
2022/03/17 02:00:21;;;;;;;36.00;32.43;;;9.20;99.90;;;;;;10456278;28;20208;-83
2022/03/17 02:05:24;;;;;;;35.43;31.80;;;9.20;99.90;;;;;;10444141;28;20224;-85
2022/03/17 02:13:08;;;;;;;38.53;34.53;;;9.20;99.90;;;;;;10469850;28;20197;-83
2022/03/17 02:15:51;;;;;;;38.33;34.47;;;9.10;99.90;;;;;;10425831;28;20708;-84
2022/03/17 02:20:53;;;;;;;38.90;35.00;;;9.00;99.90;;;;;;10426933;28;20206;-82
2022/03/17 02:25:59;;;;;;;37.27;33.37;;;9.10;99.90;;;;;;10414688;28;20223;-83
2022/03/17 02:31:02;;;;;;;38.13;34.23;;;9.00;99.90;;;;;;10436003;28;20197;-85
2022/03/17 02:36:05;;;;;;;38.27;34.47;;;9.10;99.90;;;;;;10473819;28;20275;-84
2022/03/17 02:41:08;;;;;;;37.73;33.93;;;9.10;99.90;;;;;;10434225;28;20252;-84
2022/03/17 02:46:10;;;;;;;40.73;36.63;;;9.10;99.90;;;;;;10431484;28;20247;-83
2022/03/17 02:51:13;;;;;;;39.23;35.07;;;9.10;99.90;;;;;;10432025;28;20193;-84
2022/03/17 02:56:16;;;;;;;39.57;35.40;;;9.10;99.90;;;;;;10428140;23;20217;-81
2022/03/17 03:01:18;;;;;;;39.07;35.17;;;9.10;99.90;;;;;;10411749;28;20212;-83
2022/03/17 03:06:20;;;;;;;40.13;36.13;;;9.20;99.90;;;;;;10425007;28;20275;-83
2022/03/17 03:11:24;;;;;;;39.67;35.57;;;9.20;99.90;;;;;;10448513;28;20201;-83
2022/03/17 03:16:26;;;;;;;40.20;36.00;;;9.20;99.90;;;;;;10441789;28;20233;-83
2022/03/17 03:21:28;;;;;;;41.90;37.70;;;9.20;99.90;;;;;;10419046;28;20203;-81
2022/03/17 03:26:32;;;;;;;40.53;36.33;;;9.30;99.90;;;;;;10440334;28;20957;-82
2022/03/17 03:31:34;;;;;;;39.23;35.07;;;9.40;99.90;;;;;;10435359;28;20232;-82
2022/03/17 03:41:57;;;;;;;41.10;36.80;;;9.50;99.90;;;;;;10442013;28;20291;-83
2022/03/17 03:46:59;;;;;;;39.47;35.20;;;9.60;99.90;;;;;;10436100;28;20258;-83
2022/03/17 03:52:01;;;;;;;38.43;34.50;;;9.60;99.90;;;;;;10441986;28;20540;-83
2022/03/17 03:57:05;;;;;;;37.77;34.00;;;9.60;99.90;;;;;;10463902;28;20204;-82
2022/03/17 04:02:10;;;;;;;41.77;37.67;;;9.60;99.90;;;;;;10425710;28;20205;-82
2022/03/17 04:07:13;;;;;;;40.40;36.30;;;9.60;99.90;;;;;;10450917;28;20232;-81
2022/03/17 04:12:16;;;;;;;37.90;34.10;;;9.60;99.90;;;;;;10445722;28;20228;-81
2022/03/17 04:17:18;;;;;;;39.40;35.40;;;9.60;99.90;;;;;;10453170;28;20296;-81
2022/03/17 04:22:20;;;;;;;37.80;34.10;;;9.60;99.90;;;;;;10420832;28;20244;-81
2022/03/17 04:27:24;;;;;;;38.73;34.77;;;9.70;99.90;;;;;;10430089;28;20217;-81
2022/03/17 04:32:26;;;;;;;38.50;34.70;;;9.70;99.90;;;;;;10438072;28;20308;-81
2022/03/17 04:37:28;;;;;;;36.73;33.03;;;9.70;99.90;;;;;;10447524;28;20224;-81
2022/03/17 04:42:32;;;;;;;39.53;35.47;;;9.70;99.90;;;;;;10457039;28;20223;-81
2022/03/17 04:47:34;;;;;;;40.37;35.90;;;9.60;99.90;;;;;;10453410;28;20198;-81
2022/03/17 04:57:58;;;;;;;41.87;37.50;;;9.60;99.90;;;;;;10404678;28;20546;-82
2022/03/17 05:03:00;;;;;;;39.00;34.20;;;9.60;99.90;;;;;;10398315;28;20213;-82
2022/03/17 05:08:02;;;;;;;36.83;32.93;;;9.70;99.90;;;;;;10421221;28;20293;-81
2022/03/17 05:13:07;;;;;;;37.10;33.30;;;9.70;99.90;;;;;;10467958;28;20245;-81
2022/03/17 05:18:10;;;;;;;39.33;35.33;;;9.70;99.90;;;;;;10422606;28;20251;-80
2022/03/17 05:23:15;;;;;;;38.57;34.70;;;9.70;99.90;;;;;;10428947;28;20227;-80
2022/03/17 05:28:19;;;;;;;39.07;35.17;;;9.70;99.90;;;;;;10439222;28;20193;-82
2022/03/17 05:33:21;;;;;;;39.37;35.37;;;9.80;99.90;;;;;;10429157;28;20214;-81
2022/03/17 05:38:23;;;;;;;39.37;35.23;;;9.80;99.90;;;;;;10426424;28;20210;-82
2022/03/17 05:43:27;;;;;;;39.47;35.20;;;9.80;99.90;;;;;;10410131;28;20267;-82
2022/03/17 05:48:29;;;;;;;39.10;34.90;;;9.80;99.90;;;;;;10403987;28;20194;-82
2022/03/17 05:53:31;;;;;;;40.37;35.87;;;9.70;99.90;;;;;;10432650;28;20226;-82
2022/03/17 05:58:34;;;;;;;39.07;35.07;;;9.70;99.90;;;;;;10417948;28;20209;-82
2022/03/17 06:03:36;;;;;;;41.60;37.23;;;9.70;99.90;;;;;;10396709;28;20217;-82
2022/03/17 06:08:38;;;;;;;35.60;31.90;;;9.70;99.90;;;;;;10427145;28;20204;-81
2022/03/17 06:13:44;;;;;;;38.00;33.63;;;9.80;99.90;;;;;;10439134;28;20230;-81
2022/03/17 06:18:46;;;;;;;42.20;36.07;;;9.80;99.90;;;;;;10425731;28;20202;-81
2022/03/17 06:23:48;;;;;;;41.30;36.63;;;9.80;99.90;;;;;;10429713;28;20246;-81
2022/03/17 06:28:52;;;;;;;43.17;38.63;;;9.90;99.90;;;;;;10414840;28;20319;-81
2022/03/17 06:33:54;;;;;;;42.30;38.00;;;9.90;99.90;;;;;;10421517;28;20221;-81
2022/03/17 06:38:56;;;;;;;41.90;35.57;;;10.00;99.90;;;;;;10428953;28;20201;-81
2022/03/17 06:44:00;;;;;;;38.80;34.83;;;10.10;99.90;;;;;;10416579;28;20581;-81
2022/03/17 06:49:02;;;;;;;43.37;38.80;;;10.20;99.90;;;;;;10409602;28;20271;-81
2022/03/17 06:54:04;;;;;;;39.00;34.87;;;10.20;99.90;;;;;;10454630;28;20275;-83
2022/03/17 06:59:07;;;;;;;45.50;38.60;;;10.30;99.90;;;;;;10453700;28;20213;-82
2022/03/17 07:04:09;;;;;;;38.87;34.87;;;10.40;99.90;;;;;;10427988;28;20213;-83
2022/03/17 07:09:12;;;;;;;39.93;35.80;;;10.50;99.90;;;;;;10453016;28;20232;-83
2022/03/17 07:14:15;;;;;;;43.10;38.50;;;10.50;99.90;;;;;;10429954;28;20228;-83
2022/03/17 07:19:17;;;;;;;41.93;35.03;;;10.60;99.90;;;;;;10435676;28;20292;-83
2022/03/17 07:24:19;;;;;;;44.40;37.10;;;10.60;99.90;;;;;;10426064;28;20245;-83
2022/03/17 07:29:23;;;;;;;39.97;35.87;;;10.60;99.90;;;;;;10450873;28;20205;-82
2022/03/17 07:34:25;;;;;;;42.10;37.80;;;10.70;99.90;;;;;;10454826;28;20213;-82
2022/03/17 07:39:27;;;;;;;45.60;39.47;;;10.80;99.90;;;;;;10433086;28;20635;-82
2022/03/17 07:44:31;;;;;;;38.47;34.37;;;10.90;99.90;;;;;;10403150;28;20220;-82
2022/03/17 07:49:53;;;;;;;43.23;38.00;;;10.90;99.90;;;;;;10400830;28;20201;-83
2022/03/17 07:54:56;;;;;;;42.00;37.50;;;11.00;99.90;;;;;;10410154;28;20632;-82
2022/03/17 08:00:00;;;;;;;43.37;36.60;;;11.10;99.90;;;;;;10426361;28;20236;-82
2022/03/17 08:05:02;;;;;;;42.70;38.20;;;11.20;99.90;;;;;;10450673;28;20781;-83
2022/03/17 08:10:57;;;;;;;41.50;37.20;;;11.20;99.90;;;;;;10441782;28;20284;-83
2022/03/17 08:16:01;;;;;;;39.67;35.57;;;11.20;99.90;;;;;;10409995;28;20260;-83
2022/03/17 08:21:03;;;;;;;40.63;36.23;;;11.20;99.90;;;;;;10432105;28;20212;-82
2022/03/17 08:26:05;;;;;;;37.07;33.23;;;11.20;99.90;;;;;;10419175;28;20304;-82
2022/03/17 08:31:09;;;;;;;41.23;36.93;;;11.20;99.90;;;;;;10437842;28;20204;-82
2022/03/17 08:36:12;;;;;;;43.60;38.30;;;11.30;99.90;;;;;;10444039;28;20453;-82
2022/03/17 08:41:14;;;;;;;41.57;36.80;;;11.50;99.90;;;;;;10444449;28;20283;-82
2022/03/17 08:51:37;;;;;;;39.30;35.10;;;11.70;99.90;;;;;;10438159;28;20684;-82
2022/03/17 08:56:40;;;;;;;41.57;37.20;;;11.80;99.90;;;;;;10574204;22;20230;-85
2022/03/17 09:01:43;;;;;;;40.73;36.43;;;11.80;99.90;;;;;;10532644;28;20204;-84
2022/03/17 09:06:46;;;;;;;40.37;36.07;;;11.80;99.90;;;;;;10562104;28;20222;-83
2022/03/17 09:11:48;;;;;;;42.87;38.47;;;11.90;99.90;;;;;;10521804;28;20223;-84
2022/03/17 09:16:51;;;;;;;42.23;37.90;;;12.00;99.90;;;;;;10511196;28;20504;-84
2022/03/17 09:21:54;;;;;;;41.33;36.37;;;12.00;99.90;;;;;;10515353;28;20208;-84
2022/03/17 09:26:56;;;;;;;42.23;36.40;;;12.10;99.90;;;;;;10496116;28;20708;-84
2022/03/17 09:32:00;;;;;;;40.40;36.20;;;12.10;99.90;;;;;;10535888;28;20210;-84
2022/03/17 09:37:02;;;;;;;38.07;34.07;;;12.20;99.90;;;;;;10514006;28;20223;-83
2022/03/17 09:42:05;;;;;;;38.20;34.20;;;12.30;99.90;;;;;;10491287;28;20204;-82
2022/03/17 09:47:10;;;;;;;38.53;34.30;;;12.40;99.90;;;;;;10515606;28;20213;-83
2022/03/17 09:52:13;;;;;;;40.33;35.20;;;12.40;99.90;;;;;;10493506;28;20211;-81
2022/03/17 09:57:17;;;;;;;38.57;34.40;;;12.50;99.90;;;;;;10512741;28;20717;-82
2022/03/17 10:02:21;;;;;;;41.40;34.80;;;12.50;99.90;;;;;;10515902;28;20219;-83
2022/03/17 10:07:23;;;;;;;39.00;34.90;;;12.60;99.90;;;;;;10532879;28;20291;-85
2022/03/17 10:12:28;;;;;;;40.63;35.30;;;12.60;99.90;;;;;;10517815;28;20200;-83
2022/03/17 10:17:35;;;;;;;37.63;33.60;;;12.70;99.90;;;;;;10498997;28;20258;-81
2022/03/17 10:22:41;;;;;;;38.77;34.67;;;12.70;99.90;;;;;;10507317;28;20200;-82
2022/03/17 10:27:46;;;;;;;35.87;32.00;;;12.80;99.90;;;;;;10518220;28;20748;-85
2022/03/17 10:32:56;;;;;;;36.77;32.27;;;12.90;99.90;;;;;;10509348;28;20220;-83
2022/03/17 10:38:09;;;;;;;38.87;34.33;;;12.90;99.90;;;;;;10518882;28;20695;-83
2022/03/17 10:43:16;;;;;;;38.07;32.47;;;13.00;99.90;;;;;;10515325;28;20250;-84
2022/03/17 10:48:19;;;;;;;41.70;33.77;;;13.10;99.90;;;;;;10537265;28;20198;-83
2022/03/17 10:53:28;;;;;;;37.70;33.80;;;13.20;99.90;;;;;;10530897;28;20235;-83
2022/03/17 10:58:30;;;;;;;37.80;33.60;;;13.30;99.90;;;;;;10510961;28;20251;-83
2022/03/17 11:03:33;;;;;;;37.20;32.43;;;13.40;99.90;;;;;;10535718;28;20693;-83
2022/03/17 11:08:37;;;;;;;39.33;35.13;;;13.50;99.90;;;;;;10528276;28;20224;-83
2022/03/17 11:13:40;;;;;;;40.83;34.60;;;13.50;99.90;;;;;;10496333;28;20230;-83
2022/03/17 11:18:44;;;;;;;39.07;34.97;;;13.60;99.90;;;;;;10525538;28;20208;-83
2022/03/17 11:23:55;;;;;;;37.63;33.70;;;13.70;99.90;;;;;;10514203;28;20583;-83
2022/03/17 11:29:03;;;;;;;38.90;34.37;;;13.70;99.90;;;;;;10498636;28;20255;-82
2022/03/17 11:34:07;;;;;;;44.13;35.63;;;13.60;99.90;;;;;;10497422;28;20235;-83
2022/03/17 11:39:18;;;;;;;33.40;29.90;;;13.60;99.90;;;;;;10515066;28;20200;-83
2022/03/17 11:44:34;;;;;;;36.13;30.47;;;13.50;99.90;;;;;;10514032;28;20223;-83
2022/03/17 11:49:46;;;;;;;34.23;28.10;;;13.40;99.90;;;;;;10505011;28;20630;-83
2022/03/17 11:54:48;;;;;;;37.00;31.63;;;13.40;99.90;;;;;;10521717;28;20751;-83
2022/03/17 11:59:52;;;;;;;37.07;33.07;;;13.30;99.90;;;;;;10512489;28;20212;-83
2022/03/17 12:04:56;;;;;;;37.90;33.70;;;13.20;99.90;;;;;;10503658;28;20820;-83
2022/03/17 12:09:58;;;;;;;37.60;32.73;;;13.10;99.90;;;;;;10501571;28;20196;-83
2022/03/17 12:15:01;;;;;;;38.90;31.70;;;13.10;99.90;;;;;;10504227;28;20216;-83
2022/03/17 12:20:10;;;;;;;43.17;35.27;;;13.10;99.90;;;;;;10502619;28;20544;-83
2022/03/17 12:25:18;;;;;;;40.90;35.40;;;13.10;99.90;;;;;;10486924;28;20683;-83
2022/03/17 12:30:21;;;;;;;39.83;33.70;;;13.10;99.90;;;;;;10501170;28;20220;-83
2022/03/17 12:35:26;;;;;;;38.77;34.60;;;13.10;99.90;;;;;;10507642;28;20258;-83
2022/03/17 12:40:34;;;;;;;38.70;34.43;;;13.20;99.90;;;;;;10494974;28;20287;-83
2022/03/17 12:45:38;;;;;;;39.03;33.60;;;13.30;99.90;;;;;;10518769;28;20212;-84
2022/03/17 12:50:41;;;;;;;46.13;39.23;;;13.40;99.90;;;;;;10519994;28;20250;-84
2022/03/17 12:55:44;;;;;;;38.03;33.93;;;13.40;99.90;;;;;;10520433;28;20236;-84
2022/03/17 13:00:48;;;;;;;40.33;35.80;;;13.50;99.90;;;;;;10529624;28;20211;-83
2022/03/17 13:16:33;;;;;;;39.67;35.07;;;13.40;99.90;;;;;;10504183;28;20219;-84
2022/03/17 13:21:37;;;;;;;41.10;36.60;;;13.40;99.90;;;;;;10504071;28;20645;-84
2022/03/17 13:26:40;;;;;;;41.23;36.73;;;13.40;99.90;;;;;;10511273;28;20239;-84
2022/03/17 13:31:44;;;;;;;41.50;33.97;;;13.40;99.90;;;;;;10532569;28;20737;-83
2022/03/17 13:36:55;;;;;;;41.67;37.20;;;13.40;99.90;;;;;;10520060;28;20301;-83
2022/03/17 13:41:58;;;;;;;40.17;35.87;;;13.40;99.90;;;;;;10529526;28;20230;-83
2022/03/17 13:47:11;;;;;;;38.20;34.10;;;13.40;99.90;;;;;;10511110;28;20228;-83
2022/03/17 13:52:20;;;;;;;41.07;36.80;;;13.40;99.90;;;;;;10475819;28;20197;-83
2022/03/17 13:57:22;;;;;;;37.70;33.70;;;13.50;99.90;;;;;;10495046;28;20299;-83
2022/03/17 14:02:24;;;;;;;42.27;34.30;;;13.50;99.90;;;;;;10524805;28;20287;-83
2022/03/17 14:07:28;;;;;;;41.60;36.47;;;13.40;99.90;;;;;;10523959;28;20247;-84
2022/03/17 14:12:30;;;;;;;39.63;35.47;;;13.40;99.90;;;;;;10491239;28;20228;-83
2022/03/17 14:17:32;;;;;;;40.60;35.80;;;13.30;99.90;;;;;;10513633;28;20236;-84
2022/03/17 14:27:55;;;;;;;38.23;34.13;;;13.30;99.90;;;;;;10524934;28;20204;-83
2022/03/17 14:32:58;;;;;;;37.87;33.87;;;13.20;99.90;;;;;;10531334;28;20240;-83
2022/03/17 14:38:03;;;;;;;40.60;36.40;;;13.10;99.90;;;;;;10509719;28;20217;-84
2022/03/17 14:43:05;;;;;;;46.33;38.07;;;13.10;99.90;;;;;;10539891;28;20252;-83
2022/03/17 14:48:07;;;;;;;41.07;36.63;;;13.00;99.90;;;;;;10545592;28;20198;-84
2022/03/17 14:53:10;;;;;;;39.60;34.40;;;13.00;99.90;;;;;;10550572;22;20236;-82
2022/03/17 14:58:13;;;;;;;37.70;33.63;;;12.90;99.90;;;;;;10496592;28;21029;-81
2022/03/17 15:03:15;;;;;;;39.43;33.40;;;12.90;99.90;;;;;;10481209;28;20683;-81
2022/03/17 15:08:18;;;;;;;38.37;34.20;;;12.90;99.90;;;;;;10462681;28;20205;-82
2022/03/17 15:13:20;;;;;;;46.77;37.70;;;12.80;99.90;;;;;;10458321;28;20251;-82
2022/03/17 15:18:23;;;;;;;37.37;33.33;;;12.80;99.90;;;;;;10481858;28;20217;-82
2022/03/17 15:23:27;;;;;;;38.67;34.33;;;12.80;99.90;;;;;;10495195;28;20569;-82
2022/03/17 15:33:46;;;;;;;38.47;34.23;;;12.80;99.90;;;;;;10441486;28;20217;-83
2022/03/17 15:38:49;;;;;;;39.70;35.60;;;12.80;99.90;;;;;;10463087;28;20270;-82
2022/03/17 15:43:52;;;;;;;40.57;35.10;;;12.80;99.90;;;;;;10465493;28;20225;-82
2022/03/17 15:48:54;;;;;;;38.87;34.30;;;12.80;99.90;;;;;;10462028;28;20220;-82
2022/03/17 15:54:01;;;;;;;42.37;37.77;;;12.70;99.90;;;;;;10500912;28;20662;-83
2022/03/17 15:59:08;;;;;;;39.10;34.83;;;12.70;99.90;;;;;;10507763;28;20230;-83
2022/03/17 16:04:11;;;;;;;40.30;34.57;;;12.70;99.90;;;;;;10505256;28;20224;-83
2022/03/17 16:09:15;;;;;;;42.37;37.17;;;12.60;99.90;;;;;;10488429;28;20204;-82
2022/03/17 16:14:29;;;;;;;41.67;37.17;;;12.60;99.90;;;;;;10477710;28;20374;-82
2022/03/17 16:19:32;;;;;;;41.67;37.07;;;12.70;99.90;;;;;;10491819;28;20212;-82
2022/03/17 16:24:36;;;;;;;40.33;36.13;;;12.60;99.90;;;;;;10493175;28;20216;-82
2022/03/17 16:29:38;;;;;;;42.40;37.03;;;12.60;99.90;;;;;;10491168;28;20201;-82
2022/03/17 16:34:40;;;;;;;40.97;36.57;;;12.60;99.90;;;;;;10469585;28;20597;-82
2022/03/17 16:39:45;;;;;;;42.00;37.57;;;12.60;99.90;;;;;;10492428;28;20247;-81
2022/03/17 16:44:47;;;;;;;41.87;37.37;;;12.60;99.90;;;;;;10468966;28;20307;-82
2022/03/17 16:49:50;;;;;;;43.73;37.83;;;12.50;99.90;;;;;;10482482;28;20200;-82
2022/03/17 16:54:53;;;;;;;39.73;35.53;;;12.50;99.90;;;;;;10471721;28;20239;-82
2022/03/17 16:59:55;;;;;;;40.10;35.90;;;12.50;99.90;;;;;;10498084;28;20205;-82
2022/03/17 17:04:58;;;;;;;41.43;37.03;;;12.50;99.90;;;;;;10495801;28;20311;-81
2022/03/17 17:10:02;;;;;;;39.67;35.67;;;12.50;99.90;;;;;;10499520;28;20246;-83
2022/03/17 17:15:07;;;;;;;39.43;35.23;;;12.40;99.90;;;;;;10500123;28;20228;-82
2022/03/17 17:20:10;;;;;;;36.83;33.00;;;12.40;99.90;;;;;;10499934;28;20200;-82
2022/03/17 17:30:42;;;;;;;37.43;32.90;;;12.20;99.90;;;;;;10447755;28;20286;-82
2022/03/17 17:35:44;;;;;;;38.13;33.03;;;12.20;99.90;;;;;;10475735;28;20212;-82
2022/03/17 17:40:48;;;;;;;37.20;33.13;;;12.20;99.90;;;;;;10481315;28;20729;-82
2022/03/17 17:45:51;;;;;;;37.53;33.40;;;12.10;99.90;;;;;;10481114;28;20222;-83
2022/03/17 17:50:53;;;;;;;36.23;32.27;;;12.10;99.90;;;;;;10489182;28;20201;-82
2022/03/17 17:55:57;;;;;;;36.60;32.43;;;12.10;99.90;;;;;;10489173;28;20266;-83
2022/03/17 18:00:59;;;;;;;39.27;35.20;;;12.10;99.90;;;;;;10475052;28;20292;-82
2022/03/17 18:06:02;;;;;;;38.10;34.10;;;12.00;99.90;;;;;;10484313;28;20266;-81
2022/03/17 18:11:08;;;;;;;38.03;33.90;;;12.00;99.90;;;;;;10502587;28;20254;-83
2022/03/17 18:16:12;;;;;;;37.93;33.93;;;11.90;99.90;;;;;;10451588;28;21026;-83
2022/03/17 18:21:14;;;;;;;41.30;36.23;;;11.90;99.90;;;;;;10462245;28;20295;-83
2022/03/17 18:26:18;;;;;;;38.23;34.30;;;11.90;99.90;;;;;;10467131;28;20221;-83
2022/03/17 18:31:21;;;;;;;39.83;35.80;;;11.90;99.90;;;;;;10481946;28;20818;-83
2022/03/17 18:36:23;;;;;;;39.97;35.90;;;11.90;99.90;;;;;;10482857;28;20478;-83
2022/03/17 18:41:28;;;;;;;37.57;33.43;;;11.90;99.90;;;;;;10491845;28;20584;-81
2022/03/17 18:46:31;;;;;;;37.87;34.10;;;11.90;99.90;;;;;;10472603;28;20213;-82
2022/03/17 18:51:33;;;;;;;37.20;33.30;;;11.80;99.90;;;;;;10468800;28;20201;-81
2022/03/17 18:56:37;;;;;;;39.63;35.43;;;11.80;99.90;;;;;;10428576;28;20253;-80
2022/03/17 19:01:39;;;;;;;38.80;34.57;;;11.70;99.90;;;;;;10465783;28;20577;-81
2022/03/17 19:06:42;;;;;;;43.07;38.47;;;11.70;99.90;;;;;;10461875;28;20217;-81
2022/03/17 19:11:46;;;;;;;42.97;37.70;;;11.70;99.90;;;;;;10471625;28;20287;-81
2022/03/17 19:16:49;;;;;;;43.73;39.17;;;11.60;99.90;;;;;;10473913;28;20315;-81
2022/03/17 19:21:52;;;;;;;48.40;43.00;;;11.60;99.90;;;;;;10439848;28;20211;-85
2022/03/17 19:27:00;;;;;;;49.00;43.70;;;11.50;99.90;;;;;;10490365;28;20613;-81
2022/03/17 19:32:03;;;;;;;51.37;45.77;;;11.50;99.90;;;;;;10469703;28;20211;-82
2022/03/17 19:37:05;;;;;;;54.57;48.57;;;11.30;99.90;;;;;;10455415;28;20232;-81
2022/03/17 19:42:09;;;;;;;56.97;48.27;;;11.20;99.90;;;;;;10473261;28;20215;-83
2022/03/17 19:47:12;;;;;;;54.03;48.20;;;11.10;99.90;;;;;;10431331;28;20218;-83
2022/03/17 19:52:15;;;;;;;54.80;48.17;;;11.10;99.90;;;;;;10445782;28;20628;-83
2022/03/17 19:57:19;;;;;;;55.43;48.93;;;11.00;99.90;;;;;;10480511;28;20228;-83
2022/03/17 20:02:21;;;;;;;57.27;50.67;;;11.00;99.90;;;;;;10482054;28;20610;-83
2022/03/17 20:07:26;;;;;;;59.57;51.17;;;10.90;99.90;;;;;;10475433;28;20767;-82
2022/03/17 20:17:51;;;;;;;61.90;53.10;;;10.70;99.90;;;;;;10468951;28;20740;-83
2022/03/17 20:22:56;;;;;;;71.73;54.27;;;10.60;99.90;;;;;;10470824;28;20201;-83
2022/03/17 20:28:02;;;;;;;64.23;56.13;;;10.50;99.90;;;;;;10444577;28;20709;-82
2022/03/17 20:33:09;;;;;;;69.40;56.77;;;10.50;99.90;;;;;;10437512;28;20224;-83
2022/03/17 20:38:11;;;;;;;63.73;55.60;;;10.40;99.90;;;;;;10463438;28;20221;-83
2022/03/17 20:43:16;;;;;;;69.07;57.33;;;10.40;99.90;;;;;;10461558;28;20225;-82
2022/03/17 20:48:22;;;;;;;69.47;56.87;;;10.30;99.90;;;;;;10455501;28;20236;-82
2022/03/17 20:58:32;;;;;;;77.20;61.90;;;10.20;99.90;;;;;;10354335;28;20219;-84
2022/03/17 21:03:35;;;;;;;77.40;64.73;;;10.30;99.90;;;;;;10364333;28;20630;-84
2022/03/17 21:08:37;;;;;;;79.03;64.23;;;10.20;99.90;;;;;;10389964;28;20226;-83
2022/03/17 21:13:41;;;;;;;78.43;61.27;;;10.20;99.90;;;;;;10388868;28;20650;-83
2022/03/17 21:18:43;;;;;;;73.80;60.33;;;10.20;99.90;;;;;;10367638;28;20232;-84
2022/03/17 21:23:47;;;;;;;72.90;59.33;;;10.20;99.90;;;;;;10351086;28;20257;-84
2022/03/17 21:28:50;;;;;;;81.30;65.90;;;10.30;99.90;;;;;;10388091;28;20285;-84
2022/03/17 21:33:52;;;;;;;78.27;63.50;;;10.30;99.90;;;;;;10365085;28;20227;-82
2022/03/17 21:38:55;;;;;;;76.43;63.70;;;10.30;99.90;;;;;;10360788;28;20289;-84
2022/03/17 21:44:00;;;;;;;81.47;65.17;;;10.30;99.90;;;;;;10384647;28;20223;-84
2022/03/17 21:49:03;;;;;;;82.90;65.10;;;10.20;99.90;;;;;;10399702;28;20643;-84
2022/03/17 21:54:06;;;;;;;77.77;63.47;;;10.20;99.90;;;;;;10364030;28;20298;-84
2022/03/17 21:59:10;;;;;;;84.33;66.27;;;10.20;99.90;;;;;;10355119;28;20278;-84
2022/03/17 22:04:13;;;;;;;76.53;63.70;;;10.20;99.90;;;;;;10337574;28;20241;-83
2022/03/17 22:09:15;;;;;;;77.30;59.97;;;10.20;99.90;;;;;;10358299;28;20281;-84
2022/03/17 22:14:21;;;;;;;82.13;64.20;;;10.20;99.90;;;;;;10356685;28;20253;-83
2022/03/17 22:19:23;;;;;;;81.90;63.53;;;10.10;99.90;;;;;;10386767;28;20222;-81
2022/03/17 22:24:26;;;;;;;80.17;61.10;;;10.10;99.90;;;;;;10387487;28;20228;-83
2022/03/17 22:29:30;;;;;;;77.93;59.20;;;10.10;99.90;;;;;;10367565;28;20205;-83
2022/03/17 22:34:32;;;;;;;72.70;59.40;;;10.10;99.90;;;;;;10364378;28;20230;-86
2022/03/17 22:41:30;;;;;;;78.30;62.30;;;10.10;99.90;;;;;;10365880;28;20225;-86
2022/03/17 22:44:57;;;;;;;79.17;63.33;;;10.10;99.90;;;;;;10353415;28;20222;-83
2022/03/17 22:49:59;;;;;;;74.30;60.67;;;10.10;99.90;;;;;;10364285;28;20202;-84
2022/03/17 22:55:02;;;;;;;68.10;54.30;;;10.00;99.90;;;;;;10342871;28;20230;-85
2022/03/17 23:00:26;;;;;;;60.47;51.67;;;10.00;99.90;;;;;;10371215;28;20214;-84
2022/03/17 23:05:30;;;;;;;61.67;50.30;;;10.00;99.90;;;;;;10354692;28;20304;-84
2022/03/17 23:10:33;;;;;;;57.60;47.70;;;10.00;99.90;;;;;;10338767;28;20553;-84
2022/03/17 23:15:38;;;;;;;54.83;44.27;;;10.00;99.90;;;;;;10371479;28;20261;-83
2022/03/17 23:20:41;;;;;;;48.73;41.80;;;10.00;99.90;;;;;;10362770;28;20246;-83
2022/03/17 23:25:43;;;;;;;51.47;42.40;;;9.90;99.90;;;;;;10363354;28;20321;-86
2022/03/17 23:30:47;;;;;;;45.00;39.10;;;9.90;99.90;;;;;;10362013;28;20198;-86
2022/03/17 23:35:50;;;;;;;49.87;40.77;;;10.00;99.90;;;;;;10386372;28;20620;-86
2022/03/17 23:40:53;;;;;;;42.93;36.40;;;10.00;99.90;;;;;;10365572;28;20199;-84
2022/03/17 23:45:56;;;;;;;48.03;38.00;;;10.00;99.90;;;;;;10347659;28;20218;-86
2022/03/17 23:51:00;;;;;;;39.87;35.40;;;9.90;99.90;;;;;;10346541;28;20289;-86
2022/03/17 23:56:02;;;;;;;39.87;34.10;;;9.90;99.90;;;;;;10380920;28;20258;-85
